Upper Mill, Pennsylvania
Current Conditions -  °F | °C
As of 2:56 AM on Wednesday 22 Oct 2014 (Local Time) from KCXY Reporting Station
Overcast Overcast  
Wind Chill: 56°   Ceiling: 4900
Heat Index: 56°   Visibility: 10mi
Dew Point: 47°   Wind: 5mph
Humidity: 72%   Direction: 340°NNW
Pressure: 29.9"   Gusts: NA
Location:  40.0983°N, 77.2041°W
Report Text: KCXY 220656Z AUTO 34004KT 10SM BKN049 OVC065 13/08 A2990 RMK AO2 SLP126 T01330083
Loading
Personal Weather Stations






























Interactive Weather Map
Tropical Storm Tracking
New forecast layout! Learn more

10-Day Weather Forecast

Advertisements
Track Severe Weather on mobile